sensor_id;sensor_type;location;lat;lon;timestamp;pressure;altitude;pressure_sealevel;temperature;humidity
74163;BME280;62515;52.758;5.076;2022-08-19T00:01:25;101473.94;;;15.68;100.00
74163;BME280;62515;52.758;5.076;2022-08-19T00:03:57;101475.78;;;15.68;100.00
74163;BME280;62515;52.758;5.076;2022-08-19T00:06:25;101470.66;;;15.65;100.00
74163;BME280;62515;52.758;5.076;2022-08-19T00:08:52;101463.72;;;15.62;100.00
74163;BME280;62515;52.758;5.076;2022-08-19T00:11:19;101472.91;;;15.60;100.00
74163;BME280;62515;52.758;5.076;2022-08-19T00:13:51;101471.44;;;15.56;100.00
74163;BME280;62515;52.758;5.076;2022-08-19T00:16:18;101462.78;;;15.52;100.00
74163;BME280;62515;52.758;5.076;2022-08-19T00:18:53;101469.13;;;15.51;100.00
74163;BME280;62515;52.758;5.076;2022-08-19T00:21:22;101468.28;;;15.51;100.00
74163;BME280;62515;52.758;5.076;2022-08-19T00:23:49;101461.22;;;15.50;100.00
74163;BME280;62515;52.758;5.076;2022-08-19T00:26:16;101454.13;;;15.49;100.00
74163;BME280;62515;52.758;5.076;2022-08-19T00:28:43;101443.03;;;15.42;100.00
74163;BME280;62515;52.758;5.076;2022-08-19T00:31:10;101449.84;;;15.46;100.00
74163;BME280;62515;52.758;5.076;2022-08-19T00:33:37;101444.97;;;15.51;100.00
74163;BME280;62515;52.758;5.076;2022-08-19T00:36:07;101440.63;;;15.50;100.00
74163;BME280;62515;52.758;5.076;2022-08-19T00:38:36;101448.25;;;15.55;100.00
74163;BME280;62515;52.758;5.076;2022-08-19T00:41:06;101454.13;;;15.60;100.00
74163;BME280;62515;52.758;5.076;2022-08-19T00:43:33;101450.06;;;15.65;100.00
74163;BME280;62515;52.758;5.076;2022-08-19T00:46:00;101449.22;;;15.65;100.00
74163;BME280;62515;52.758;5.076;2022-08-19T00:48:31;101452.50;;;15.68;100.00
74163;BME280;62515;52.758;5.076;2022-08-19T00:50:59;101447.50;;;15.64;100.00
74163;BME280;62515;52.758;5.076;2022-08-19T00:53:29;101438.88;;;15.60;100.00
74163;BME280;62515;52.758;5.076;2022-08-19T00:55:59;101444.44;;;15.68;100.00
74163;BME280;62515;52.758;5.076;2022-08-19T00:58:28;101457.47;;;15.73;100.00
74163;BME280;62515;52.758;5.076;2022-08-19T01:00:55;101452.22;;;15.72;100.00
74163;BME280;62515;52.758;5.076;2022-08-19T01:03:22;101447.97;;;15.69;100.00
74163;BME280;62515;52.758;5.076;2022-08-19T01:05:50;101452.63;;;15.67;100.00
74163;BME280;62515;52.758;5.076;2022-08-19T01:08:19;101449.34;;;15.63;100.00
74163;BME280;62515;52.758;5.076;2022-08-19T01:10:50;101448.34;;;15.64;100.00
74163;BME280;62515;52.758;5.076;2022-08-19T01:13:21;101436.19;;;15.60;100.00
74163;BME280;62515;52.758;5.076;2022-08-19T01:15:52;101447.72;;;15.72;100.00
74163;BME280;62515;52.758;5.076;2022-08-19T01:18:21;101453.28;;;15.80;100.00
74163;BME280;62515;52.758;5.076;2022-08-19T01:20:48;101445.84;;;15.84;100.00
74163;BME280;62515;52.758;5.076;2022-08-19T01:23:17;101445.47;;;15.88;100.00
74163;BME280;62515;52.758;5.076;2022-08-19T01:25:47;101454.81;;;15.94;100.00
74163;BME280;62515;52.758;5.076;2022-08-19T01:28:17;101460.44;;;15.91;100.00
74163;BME280;62515;52.758;5.076;2022-08-19T01:30:59;101459.25;;;15.84;100.00
74163;BME280;62515;52.758;5.076;2022-08-19T01:33:26;101469.16;;;15.83;100.00
74163;BME280;62515;52.758;5.076;2022-08-19T01:35:52;101448.31;;;15.76;100.00
74163;BME280;62515;52.758;5.076;2022-08-19T01:38:23;101454.03;;;15.82;100.00
74163;BME280;62515;52.758;5.076;2022-08-19T01:40:51;101451.09;;;15.85;100.00
74163;BME280;62515;52.758;5.076;2022-08-19T01:43:18;101454.75;;;15.84;100.00
74163;BME280;62515;52.758;5.076;2022-08-19T01:45:46;101453.28;;;15.80;100.00
74163;BME280;62515;52.758;5.076;2022-08-19T01:48:13;101452.78;;;15.86;100.00
74163;BME280;62515;52.758;5.076;2022-08-19T01:50:40;101453.72;;;15.96;100.00
74163;BME280;62515;52.758;5.076;2022-08-19T01:53:10;101455.16;;;16.00;100.00
74163;BME280;62515;52.758;5.076;2022-08-19T01:55:41;101460.75;;;16.08;100.00
74163;BME280;62515;52.758;5.076;2022-08-19T01:58:11;101459.50;;;16.12;100.00
74163;BME280;62515;52.758;5.076;2022-08-19T02:00:39;101461.94;;;16.15;100.00
74163;BME280;62515;52.758;5.076;2022-08-19T02:03:06;101469.13;;;16.15;100.00
74163;BME280;62515;52.758;5.076;2022-08-19T02:05:35;101464.34;;;16.18;100.00
74163;BME280;62515;52.758;5.076;2022-08-19T02:08:03;101455.28;;;16.19;100.00
74163;BME280;62515;52.758;5.076;2022-08-19T02:10:30;101456.41;;;16.17;100.00
74163;BME280;62515;52.758;5.076;2022-08-19T02:13:00;101464.63;;;16.15;100.00
74163;BME280;62515;52.758;5.076;2022-08-19T02:15:26;101463.59;;;16.16;100.00
74163;BME280;62515;52.758;5.076;2022-08-19T02:17:53;101459.50;;;16.12;100.00
74163;BME280;62515;52.758;5.076;2022-08-19T02:20:20;101456.34;;;16.07;100.00
74163;BME280;62515;52.758;5.076;2022-08-19T02:22:48;101452.09;;;16.05;100.00
74163;BME280;62515;52.758;5.076;2022-08-19T02:25:15;101453.91;;;16.04;100.00
74163;BME280;62515;52.758;5.076;2022-08-19T02:27:42;101449.53;;;16.03;100.00
74163;BME280;62515;52.758;5.076;2022-08-19T02:30:15;101452.34;;;16.02;100.00
74163;BME280;62515;52.758;5.076;2022-08-19T02:32:42;101452.19;;;16.03;100.00
74163;BME280;62515;52.758;5.076;2022-08-19T02:35:11;101461.72;;;16.07;100.00
74163;BME280;62515;52.758;5.076;2022-08-19T02:37:39;101457.47;;;16.05;100.00
74163;BME280;62515;52.758;5.076;2022-08-19T02:40:35;101464.91;;;16.01;100.00
74163;BME280;62515;52.758;5.076;2022-08-19T02:43:03;101454.56;;;15.97;100.00
74163;BME280;62515;52.758;5.076;2022-08-19T02:45:33;101448.59;;;15.93;100.00
74163;BME280;62515;52.758;5.076;2022-08-19T02:48:05;101457.16;;;15.87;100.00
74163;BME280;62515;52.758;5.076;2022-08-19T02:50:46;101453.78;;;15.85;100.00
74163;BME280;62515;52.758;5.076;2022-08-19T02:53:19;101461.69;;;15.87;100.00
74163;BME280;62515;52.758;5.076;2022-08-19T02:55:46;101458.91;;;15.77;100.00
74163;BME280;62515;52.758;5.076;2022-08-19T02:58:14;101461.75;;;15.76;100.00
74163;BME280;62515;52.758;5.076;2022-08-19T03:00:44;101454.53;;;15.76;100.00
74163;BME280;62515;52.758;5.076;2022-08-19T03:03:11;101448.16;;;15.77;100.00
74163;BME280;62515;52.758;5.076;2022-08-19T03:05:39;101446.88;;;15.72;100.00
74163;BME280;62515;52.758;5.076;2022-08-19T03:08:21;101439.84;;;15.59;100.00
74163;BME280;62515;52.758;5.076;2022-08-19T03:10:48;101428.06;;;15.51;100.00
74163;BME280;62515;52.758;5.076;2022-08-19T03:13:17;101426.47;;;15.48;100.00
74163;BME280;62515;52.758;5.076;2022-08-19T03:15:47;101420.72;;;15.42;100.00
74163;BME280;62515;52.758;5.076;2022-08-19T03:18:15;101413.31;;;15.34;100.00
74163;BME280;62515;52.758;5.076;2022-08-19T03:20:45;101410.38;;;15.37;100.00
74163;BME280;62515;52.758;5.076;2022-08-19T03:23:13;101406.59;;;15.40;100.00
74163;BME280;62515;52.758;5.076;2022-08-19T03:25:41;101416.59;;;15.38;100.00
74163;BME280;62515;52.758;5.076;2022-08-19T03:28:11;101411.94;;;15.40;100.00
74163;BME280;62515;52.758;5.076;2022-08-19T03:30:39;101404.41;;;15.34;100.00
74163;BME280;62515;52.758;5.076;2022-08-19T03:33:10;101408.44;;;15.28;100.00
74163;BME280;62515;52.758;5.076;2022-08-19T03:35:43;101409.09;;;15.21;100.00
74163;BME280;62515;52.758;5.076;2022-08-19T03:38:11;101409.94;;;15.21;100.00
74163;BME280;62515;52.758;5.076;2022-08-19T03:40:38;101405.66;;;15.18;100.00
74163;BME280;62515;52.758;5.076;2022-08-19T03:43:05;101411.75;;;15.21;100.00
74163;BME280;62515;52.758;5.076;2022-08-19T03:45:32;101406.41;;;15.21;100.00
74163;BME280;62515;52.758;5.076;2022-08-19T03:47:59;101404.09;;;15.16;100.00
74163;BME280;62515;52.758;5.076;2022-08-19T03:50:27;101400.69;;;15.14;100.00
74163;BME280;62515;52.758;5.076;2022-08-19T03:52:54;101393.88;;;15.10;100.00
74163;BME280;62515;52.758;5.076;2022-08-19T03:55:21;101404.72;;;15.08;100.00
74163;BME280;62515;52.758;5.076;2022-08-19T03:57:48;101403.63;;;15.00;100.00
74163;BME280;62515;52.758;5.076;2022-08-19T04:00:16;101407.66;;;14.94;100.00
74163;BME280;62515;52.758;5.076;2022-08-19T04:02:43;101399.13;;;14.89;100.00
74163;BME280;62515;52.758;5.076;2022-08-19T04:05:27;101399.13;;;15.00;100.00
74163;BME280;62515;52.758;5.076;2022-08-19T04:07:54;101419.22;;;15.06;100.00
74163;BME280;62515;52.758;5.076;2022-08-19T04:10:26;101402.41;;;15.04;100.00
74163;BME280;62515;52.758;5.076;2022-08-19T04:12:53;101407.63;;;15.16;100.00
74163;BME280;62515;52.758;5.076;2022-08-19T04:15:20;101404.59;;;15.21;100.00
74163;BME280;62515;52.758;5.076;2022-08-19T04:17:47;101405.81;;;15.17;100.00
74163;BME280;62515;52.758;5.076;2022-08-19T04:20:14;101403.47;;;15.12;100.00
74163;BME280;62515;52.758;5.076;2022-08-19T04:22:42;101406.66;;;15.17;100.00
74163;BME280;62515;52.758;5.076;2022-08-19T04:25:10;101404.69;;;15.19;100.00
74163;BME280;62515;52.758;5.076;2022-08-19T04:27:37;101407.88;;;15.25;100.00
74163;BME280;62515;52.758;5.076;2022-08-19T04:30:04;101409.53;;;15.26;100.00
74163;BME280;62515;52.758;5.076;2022-08-19T04:32:31;101407.47;;;15.29;100.00
74163;BME280;62515;52.758;5.076;2022-08-19T04:34:58;101402.59;;;15.34;100.00
74163;BME280;62515;52.758;5.076;2022-08-19T04:37:43;101402.19;;;15.39;100.00
74163;BME280;62515;52.758;5.076;2022-08-19T04:40:11;101410.13;;;15.40;100.00
74163;BME280;62515;52.758;5.076;2022-08-19T04:42:56;101418.91;;;15.53;100.00
74163;BME280;62515;52.758;5.076;2022-08-19T04:45:23;101400.22;;;15.52;100.00
74163;BME280;62515;52.758;5.076;2022-08-19T04:47:54;101403.34;;;15.68;100.00
74163;BME280;62515;52.758;5.076;2022-08-19T04:50:43;101411.91;;;15.62;100.00
74163;BME280;62515;52.758;5.076;2022-08-19T04:53:11;101406.53;;;15.62;100.00
74163;BME280;62515;52.758;5.076;2022-08-19T04:55:39;101404.22;;;15.57;100.00
74163;BME280;62515;52.758;5.076;2022-08-19T04:58:07;101413.53;;;15.53;100.00
74163;BME280;62515;52.758;5.076;2022-08-19T05:00:37;101412.94;;;15.50;100.00
74163;BME280;62515;52.758;5.076;2022-08-19T05:03:04;101417.31;;;15.51;100.00
74163;BME280;62515;52.758;5.076;2022-08-19T05:05:33;101415.28;;;15.64;100.00
74163;BME280;62515;52.758;5.076;2022-08-19T05:08:13;101424.44;;;15.73;100.00
74163;BME280;62515;52.758;5.076;2022-08-19T05:10:57;101428.41;;;15.78;100.00
74163;BME280;62515;52.758;5.076;2022-08-19T05:13:23;101424.63;;;15.81;100.00
74163;BME280;62515;52.758;5.076;2022-08-19T05:15:54;101428.16;;;15.81;100.00
74163;BME280;62515;52.758;5.076;2022-08-19T05:18:21;101436.34;;;15.80;100.00
74163;BME280;62515;52.758;5.076;2022-08-19T05:21:07;101441.13;;;15.76;100.00
74163;BME280;62515;52.758;5.076;2022-08-19T05:23:54;101440.00;;;15.79;100.00
74163;BME280;62515;52.758;5.076;2022-08-19T05:26:21;101436.53;;;15.88;100.00
74163;BME280;62515;52.758;5.076;2022-08-19T05:28:48;101430.28;;;15.98;100.00
74163;BME280;62515;52.758;5.076;2022-08-19T05:31:20;101430.47;;;16.06;100.00
74163;BME280;62515;52.758;5.076;2022-08-19T05:33:47;101434.06;;;16.16;100.00
74163;BME280;62515;52.758;5.076;2022-08-19T05:36:14;101425.47;;;16.22;100.00
74163;BME280;62515;52.758;5.076;2022-08-19T05:38:41;101438.38;;;16.49;100.00
74163;BME280;62515;52.758;5.076;2022-08-19T05:41:12;101433.53;;;16.64;100.00
74163;BME280;62515;52.758;5.076;2022-08-19T05:43:41;101429.78;;;16.76;100.00
74163;BME280;62515;52.758;5.076;2022-08-19T05:46:07;101415.69;;;16.93;100.00
74163;BME280;62515;52.758;5.076;2022-08-19T05:48:35;101412.06;;;17.13;100.00
74163;BME280;62515;52.758;5.076;2022-08-19T05:51:04;101419.72;;;17.27;100.00
74163;BME280;62515;52.758;5.076;2022-08-19T05:53:33;101415.91;;;17.40;100.00
74163;BME280;62515;52.758;5.076;2022-08-19T05:56:04;101410.28;;;17.52;100.00
74163;BME280;62515;52.758;5.076;2022-08-19T05:58:32;101415.84;;;17.60;100.00
74163;BME280;62515;52.758;5.076;2022-08-19T06:00:59;101404.78;;;17.73;99.18
74163;BME280;62515;52.758;5.076;2022-08-19T06:03:31;101414.00;;;17.80;98.53
74163;BME280;62515;52.758;5.076;2022-08-19T06:05:59;101408.91;;;17.87;98.46
74163;BME280;62515;52.758;5.076;2022-08-19T06:08:26;101410.03;;;17.94;98.61
74163;BME280;62515;52.758;5.076;2022-08-19T06:11:13;101405.78;;;18.01;98.12
74163;BME280;62515;52.758;5.076;2022-08-19T06:13:42;101402.63;;;18.05;98.22
74163;BME280;62515;52.758;5.076;2022-08-19T06:16:09;101394.44;;;18.07;98.22
74163;BME280;62515;52.758;5.076;2022-08-19T06:18:36;101394.69;;;18.13;98.10
74163;BME280;62515;52.758;5.076;2022-08-19T06:21:03;101391.13;;;18.22;97.54
74163;BME280;62515;52.758;5.076;2022-08-19T06:23:30;101391.53;;;18.27;97.97
74163;BME280;62515;52.758;5.076;2022-08-19T06:25:57;101383.88;;;18.33;97.64
74163;BME280;62515;52.758;5.076;2022-08-19T06:28:24;101395.03;;;18.38;98.01
74163;BME280;62515;52.758;5.076;2022-08-19T06:30:52;101398.00;;;18.44;97.59
74163;BME280;62515;52.758;5.076;2022-08-19T06:33:19;101402.53;;;18.53;97.61
74163;BME280;62515;52.758;5.076;2022-08-19T06:35:46;101404.50;;;18.61;97.92
74163;BME280;62515;52.758;5.076;2022-08-19T06:38:13;101390.72;;;18.64;97.47
74163;BME280;62515;52.758;5.076;2022-08-19T06:41:26;101413.81;;;18.76;96.94
74163;BME280;62515;52.758;5.076;2022-08-19T06:43:54;101423.72;;;18.85;96.54
74163;BME280;62515;52.758;5.076;2022-08-19T06:46:22;101427.53;;;18.92;96.15
74163;BME280;62515;52.758;5.076;2022-08-19T06:48:50;101417.81;;;18.99;96.40
74163;BME280;62515;52.758;5.076;2022-08-19T06:51:21;101422.31;;;19.08;96.30
74163;BME280;62515;52.758;5.076;2022-08-19T06:53:55;101424.13;;;19.17;96.43
74163;BME280;62515;52.758;5.076;2022-08-19T06:56:24;101423.19;;;19.26;96.13
74163;BME280;62515;52.758;5.076;2022-08-19T06:58:58;101417.19;;;19.32;95.41
74163;BME280;62515;52.758;5.076;2022-08-19T07:01:25;101408.66;;;19.37;95.91
74163;BME280;62515;52.758;5.076;2022-08-19T07:03:52;101414.00;;;19.47;95.77
74163;BME280;62515;52.758;5.076;2022-08-19T07:06:19;101419.25;;;19.66;95.07
74163;BME280;62515;52.758;5.076;2022-08-19T07:09:10;101417.03;;;19.79;94.58
74163;BME280;62515;52.758;5.076;2022-08-19T07:11:38;101423.19;;;19.89;93.99
74163;BME280;62515;52.758;5.076;2022-08-19T07:14:06;101422.59;;;20.03;94.05
74163;BME280;62515;52.758;5.076;2022-08-19T07:16:46;101421.16;;;20.09;93.96
74163;BME280;62515;52.758;5.076;2022-08-19T07:19:14;101426.06;;;20.13;93.57
74163;BME280;62515;52.758;5.076;2022-08-19T07:21:47;101428.00;;;20.39;92.48
74163;BME280;62515;52.758;5.076;2022-08-19T07:24:16;101430.09;;;20.53;91.63
74163;BME280;62515;52.758;5.076;2022-08-19T07:26:44;101432.53;;;20.64;91.13
74163;BME280;62515;52.758;5.076;2022-08-19T07:29:20;101423.94;;;20.68;90.63
74163;BME280;62515;52.758;5.076;2022-08-19T07:31:54;101427.75;;;20.83;91.00
74163;BME280;62515;52.758;5.076;2022-08-19T07:34:27;101424.59;;;21.04;90.04
74163;BME280;62515;52.758;5.076;2022-08-19T07:36:54;101429.44;;;21.18;89.72
74163;BME280;62515;52.758;5.076;2022-08-19T07:39:25;101428.63;;;21.26;89.16
74163;BME280;62515;52.758;5.076;2022-08-19T07:41:53;101422.38;;;21.33;89.67
74163;BME280;62515;52.758;5.076;2022-08-19T07:44:22;101422.75;;;21.55;88.40
74163;BME280;62515;52.758;5.076;2022-08-19T07:46:51;101422.25;;;21.51;87.59
74163;BME280;62515;52.758;5.076;2022-08-19T07:49:19;101422.44;;;21.66;86.31
74163;BME280;62515;52.758;5.076;2022-08-19T07:51:49;101431.25;;;21.84;85.78
74163;BME280;62515;52.758;5.076;2022-08-19T07:54:17;101435.53;;;21.95;85.75
74163;BME280;62515;52.758;5.076;2022-08-19T07:56:44;101428.91;;;22.05;85.57
74163;BME280;62515;52.758;5.076;2022-08-19T07:59:11;101427.06;;;22.30;82.73
74163;BME280;62515;52.758;5.076;2022-08-19T08:01:40;101429.59;;;22.23;83.01
74163;BME280;62515;52.758;5.076;2022-08-19T08:04:07;101420.75;;;22.37;82.78
74163;BME280;62515;52.758;5.076;2022-08-19T08:06:53;101424.19;;;23.25;79.85
74163;BME280;62515;52.758;5.076;2022-08-19T08:09:42;101429.31;;;23.82;76.71
74163;BME280;62515;52.758;5.076;2022-08-19T08:12:17;101431.69;;;24.22;75.14
74163;BME280;62515;52.758;5.076;2022-08-19T08:15:03;101417.78;;;24.69;72.44
74163;BME280;62515;52.758;5.076;2022-08-19T08:17:35;101438.78;;;24.46;71.98
74163;BME280;62515;52.758;5.076;2022-08-19T08:20:16;101437.59;;;25.07;69.23
74163;BME280;62515;52.758;5.076;2022-08-19T08:22:43;101448.09;;;25.75;67.09
74163;BME280;62515;52.758;5.076;2022-08-19T08:25:30;101447.59;;;26.29;64.48
74163;BME280;62515;52.758;5.076;2022-08-19T08:27:59;101445.84;;;26.49;61.98
74163;BME280;62515;52.758;5.076;2022-08-19T08:30:28;101449.34;;;25.94;64.56
74163;BME280;62515;52.758;5.076;2022-08-19T08:32:59;101446.13;;;26.61;62.14
74163;BME280;62515;52.758;5.076;2022-08-19T08:35:28;101443.34;;;27.16;61.02
74163;BME280;62515;52.758;5.076;2022-08-19T08:37:55;101445.38;;;27.48;60.40
74163;BME280;62515;52.758;5.076;2022-08-19T08:40:28;101455.94;;;26.27;63.98
74163;BME280;62515;52.758;5.076;2022-08-19T08:43:01;101461.66;;;25.69;65.28
74163;BME280;62515;52.758;5.076;2022-08-19T08:45:42;101452.31;;;25.42;66.76
74163;BME280;62515;52.758;5.076;2022-08-19T08:48:24;101456.59;;;25.66;65.05
74163;BME280;62515;52.758;5.076;2022-08-19T08:50:59;101457.50;;;25.73;65.18
74163;BME280;62515;52.758;5.076;2022-08-19T08:53:31;101455.81;;;26.14;63.65
74163;BME280;62515;52.758;5.076;2022-08-19T08:56:06;101453.53;;;26.39;63.46
74163;BME280;62515;52.758;5.076;2022-08-19T08:58:44;101457.31;;;25.74;64.18
74163;BME280;62515;52.758;5.076;2022-08-19T09:01:20;101444.19;;;25.63;64.47
74163;BME280;62515;52.758;5.076;2022-08-19T09:03:48;101453.72;;;25.53;65.86
74163;BME280;62515;52.758;5.076;2022-08-19T09:06:24;101449.09;;;25.53;65.01
74163;BME280;62515;52.758;5.076;2022-08-19T09:08:59;101459.69;;;26.47;62.34
74163;BME280;62515;52.758;5.076;2022-08-19T09:11:50;101460.41;;;26.84;59.61
74163;BME280;62515;52.758;5.076;2022-08-19T09:14:32;101461.78;;;26.45;61.68
74163;BME280;62515;52.758;5.076;2022-08-19T09:17:22;101456.59;;;26.08;61.47
74163;BME280;62515;52.758;5.076;2022-08-19T09:20:14;101467.38;;;25.74;63.28
74163;BME280;62515;52.758;5.076;2022-08-19T09:22:43;101461.78;;;25.82;64.03
74163;BME280;62515;52.758;5.076;2022-08-19T09:25:15;101463.31;;;25.34;65.78
74163;BME280;62515;52.758;5.076;2022-08-19T09:27:51;101472.06;;;25.59;64.20
74163;BME280;62515;52.758;5.076;2022-08-19T09:30:30;101468.84;;;26.33;59.11
74163;BME280;62515;52.758;5.076;2022-08-19T09:32:58;101474.94;;;26.91;56.88
74163;BME280;62515;52.758;5.076;2022-08-19T09:35:29;101475.69;;;27.13;56.92
74163;BME280;62515;52.758;5.076;2022-08-19T09:37:57;101473.47;;;28.03;55.08
74163;BME280;62515;52.758;5.076;2022-08-19T09:40:26;101473.53;;;28.82;53.13
74163;BME280;62515;52.758;5.076;2022-08-19T09:42:57;101480.28;;;28.40;54.25
74163;BME280;62515;52.758;5.076;2022-08-19T09:45:26;101484.50;;;28.75;53.33
74163;BME280;62515;52.758;5.076;2022-08-19T09:47:53;101482.91;;;27.81;55.83
74163;BME280;62515;52.758;5.076;2022-08-19T09:50:22;101487.38;;;27.00;58.82
74163;BME280;62515;52.758;5.076;2022-08-19T09:52:51;101492.69;;;26.80;58.90
74163;BME280;62515;52.758;5.076;2022-08-19T09:55:24;101491.00;;;27.48;56.30
74163;BME280;62515;52.758;5.076;2022-08-19T09:57:59;101494.84;;;27.53;56.72
74163;BME280;62515;52.758;5.076;2022-08-19T10:00:26;101484.06;;;28.32;53.41
74163;BME280;62515;52.758;5.076;2022-08-19T10:02:53;101482.72;;;29.07;52.56
74163;BME280;62515;52.758;5.076;2022-08-19T10:05:20;101486.38;;;28.75;53.20
74163;BME280;62515;52.758;5.076;2022-08-19T10:08:09;101485.16;;;27.58;56.25
74163;BME280;62515;52.758;5.076;2022-08-19T10:10:39;101486.78;;;26.77;58.04
74163;BME280;62515;52.758;5.076;2022-08-19T10:13:08;101480.09;;;26.51;59.37
74163;BME280;62515;52.758;5.076;2022-08-19T10:15:35;101488.31;;;26.09;60.44
74163;BME280;62515;52.758;5.076;2022-08-19T10:18:14;101486.81;;;25.20;63.26
74163;BME280;62515;52.758;5.076;2022-08-19T10:20:41;101487.78;;;24.83;65.03
74163;BME280;62515;52.758;5.076;2022-08-19T10:23:10;101487.31;;;24.94;65.46
74163;BME280;62515;52.758;5.076;2022-08-19T10:25:37;101486.91;;;25.27;64.74
74163;BME280;62515;52.758;5.076;2022-08-19T10:28:09;101480.75;;;26.11;62.45
74163;BME280;62515;52.758;5.076;2022-08-19T10:30:39;101482.00;;;26.09;61.59
74163;BME280;62515;52.758;5.076;2022-08-19T10:33:06;101482.25;;;25.71;61.79
74163;BME280;62515;52.758;5.076;2022-08-19T10:35:37;101481.84;;;25.24;64.06
74163;BME280;62515;52.758;5.076;2022-08-19T10:38:23;101493.22;;;25.13;64.19
74163;BME280;62515;52.758;5.076;2022-08-19T10:41:06;101482.34;;;25.13;65.25
74163;BME280;62515;52.758;5.076;2022-08-19T10:43:33;101490.03;;;24.94;64.61
74163;BME280;62515;52.758;5.076;2022-08-19T10:46:05;101495.41;;;24.51;67.95
74163;BME280;62515;52.758;5.076;2022-08-19T10:48:40;101497.16;;;24.43;68.78
74163;BME280;62515;52.758;5.076;2022-08-19T10:51:08;101489.38;;;23.95;70.47
74163;BME280;62515;52.758;5.076;2022-08-19T10:53:56;101496.00;;;23.70;71.52
74163;BME280;62515;52.758;5.076;2022-08-19T10:56:23;101488.69;;;23.31;73.93
74163;BME280;62515;52.758;5.076;2022-08-19T10:59:09;101491.00;;;23.51;72.53
74163;BME280;62515;52.758;5.076;2022-08-19T11:01:36;101485.22;;;23.54;71.55
74163;BME280;62515;52.758;5.076;2022-08-19T11:04:04;101491.00;;;23.51;71.50
74163;BME280;62515;52.758;5.076;2022-08-19T11:06:31;101490.19;;;23.73;70.49
74163;BME280;62515;52.758;5.076;2022-08-19T11:09:00;101492.13;;;24.10;70.91
74163;BME280;62515;52.758;5.076;2022-08-19T11:11:27;101501.94;;;24.41;71.11
74163;BME280;62515;52.758;5.076;2022-08-19T11:13:54;101495.25;;;24.67;69.91
74163;BME280;62515;52.758;5.076;2022-08-19T11:16:24;101499.09;;;24.72;68.46
74163;BME280;62515;52.758;5.076;2022-08-19T11:18:54;101484.56;;;24.80;64.84
74163;BME280;62515;52.758;5.076;2022-08-19T11:21:27;101496.44;;;24.87;65.02
74163;BME280;62515;52.758;5.076;2022-08-19T11:23:57;101487.72;;;24.69;66.15
74163;BME280;62515;52.758;5.076;2022-08-19T11:26:26;101487.91;;;24.07;68.00
74163;BME280;62515;52.758;5.076;2022-08-19T11:28:53;101484.34;;;24.29;68.37
74163;BME280;62515;52.758;5.076;2022-08-19T11:31:25;101489.66;;;24.00;70.32
74163;BME280;62515;52.758;5.076;2022-08-19T11:33:56;101489.63;;;24.31;70.27
74163;BME280;62515;52.758;5.076;2022-08-19T11:36:23;101488.25;;;24.87;66.57
74163;BME280;62515;52.758;5.076;2022-08-19T11:38:50;101487.88;;;25.19;65.59
74163;BME280;62515;52.758;5.076;2022-08-19T11:41:20;101485.34;;;25.03;67.44
74163;BME280;62515;52.758;5.076;2022-08-19T11:43:48;101483.81;;;25.01;66.49
74163;BME280;62515;52.758;5.076;2022-08-19T11:46:16;101488.03;;;25.32;64.78
74163;BME280;62515;52.758;5.076;2022-08-19T11:48:44;101487.13;;;25.97;61.58
74163;BME280;62515;52.758;5.076;2022-08-19T11:51:14;101484.13;;;26.56;60.36
74163;BME280;62515;52.758;5.076;2022-08-19T11:53:42;101481.38;;;27.11;57.75
74163;BME280;62515;52.758;5.076;2022-08-19T11:56:10;101487.16;;;26.18;62.33
74163;BME280;62515;52.758;5.076;2022-08-19T11:58:38;101490.59;;;25.84;64.09
74163;BME280;62515;52.758;5.076;2022-08-19T12:01:08;101487.25;;;25.89;64.85
74163;BME280;62515;52.758;5.076;2022-08-19T12:03:35;101489.47;;;26.00;63.00
74163;BME280;62515;52.758;5.076;2022-08-19T12:06:04;101486.44;;;26.31;62.01
74163;BME280;62515;52.758;5.076;2022-08-19T12:08:31;101494.50;;;26.39;62.37
74163;BME280;62515;52.758;5.076;2022-08-19T12:10:58;101488.63;;;26.42;60.55
74163;BME280;62515;52.758;5.076;2022-08-19T12:13:27;101491.41;;;26.48;61.99
74163;BME280;62515;52.758;5.076;2022-08-19T12:15:54;101504.31;;;26.61;61.65
74163;BME280;62515;52.758;5.076;2022-08-19T12:18:23;101504.78;;;26.43;61.48
74163;BME280;62515;52.758;5.076;2022-08-19T12:20:52;101504.28;;;27.10;58.67
74163;BME280;62515;52.758;5.076;2022-08-19T12:23:21;101494.56;;;28.02;55.40
74163;BME280;62515;52.758;5.076;2022-08-19T12:25:49;101497.91;;;27.98;54.15
74163;BME280;62515;52.758;5.076;2022-08-19T12:28:20;101501.84;;;26.94;59.40
74163;BME280;62515;52.758;5.076;2022-08-19T12:30:47;101497.47;;;26.72;57.58
74163;BME280;62515;52.758;5.076;2022-08-19T12:33:14;101494.56;;;26.24;61.13
74163;BME280;62515;52.758;5.076;2022-08-19T12:35:43;101491.03;;;25.88;61.45
74163;BME280;62515;52.758;5.076;2022-08-19T12:38:13;101487.78;;;26.41;58.33
74163;BME280;62515;52.758;5.076;2022-08-19T12:40:41;101488.47;;;26.22;58.62
74163;BME280;62515;52.758;5.076;2022-08-19T12:43:11;101485.22;;;25.55;60.62
74163;BME280;62515;52.758;5.076;2022-08-19T12:45:38;101489.22;;;25.59;62.50
74163;BME280;62515;52.758;5.076;2022-08-19T12:48:06;101497.13;;;25.90;62.03
74163;BME280;62515;52.758;5.076;2022-08-19T12:50:54;101489.25;;;26.65;61.09
74163;BME280;62515;52.758;5.076;2022-08-19T12:53:21;101486.31;;;27.35;56.04
74163;BME280;62515;52.758;5.076;2022-08-19T12:55:54;101477.78;;;28.25;55.18
74163;BME280;62515;52.758;5.076;2022-08-19T12:58:22;101486.16;;;28.63;52.80
74163;BME280;62515;52.758;5.076;2022-08-19T13:00:53;101476.91;;;28.31;52.09
74163;BME280;62515;52.758;5.076;2022-08-19T13:03:20;101478.44;;;27.19;55.88